Waverly, Tennessee
Current Conditions -  °F | °C
As of 3:15 AM on Friday 19 Dec 2014 (Local Time) from KPHT Reporting Station
Overcast Overcast  
Wind Chill: 26°   Ceiling: 4400
Heat Index: 32°   Visibility: 10mi
Dew Point: 28°   Wind: 7mph
Humidity: 87%   Direction: 40°NE
Pressure: 30.23"   Gusts: NA
Location:  36.08°N, 87.79°W
Report Text: KPHT 190915Z AUTO 04006KT 10SM OVC044 00/M02 A3023 RMK
Loading
Personal Weather Stations






























Interactive Weather Map New forecast layout! Learn more

10-Day Weather Forecast

Advertisements
Track Severe Weather on mobile